Aeroporto :
LOGIN :

Iscrizione | Disclaimer

   EN    FR    IT 

 










Sommario :    VFR   VFR Marginale   IFR   IFR Intensivo   IFR Molto Intensivo
Visibilità : 
Base nubi : 
>= 8 km
>= 3000ft
5 / 8 km
1000 / 3000 ft
1500m / 5 km
500 / 1000 ft
800 / 1500m
200 / 500 ft
< 800m
< 200 ft
Simboli :   Temporali  Nebbia  Neve Forte  Precipitazioni Forti  Vento > 20 kt
SIGMETs :   Varie  Temporali  Ghiacco  Turbolenza  Onda orograficha  Ceneri Vulcaniche






- Altitudine del aeroporto : 28 ft
- Codice IATA : SOZ


LFKS - Solenzara

ULTIMO METAR :
  • 201500Z AUTO VRB02KT 9999 FEW078 16/09 Q1012

METARs OBSOLETI :
  • 201430Z AUTO 15003KT 100V190 9999 FEW066 OVC078 16/09 Q1012
  • 201400Z AUTO 16003KT 110V190 9999 FEW052 BKN080 17/10 Q1012
  • 201330Z AUTO 12003KT 090V150 9999 BKN060 BKN078 17/09 Q1012
  • 201300Z AUTO 09004KT 050V130 9999 OVC056 16/10 Q1012
  • 201230Z AUTO 09004KT 060V120 9999 OVC068 16/10 Q1012

TAF TAF LFKS
Valido dal 20 a 15 ore il 21 a 15 ore UTC


201400Z 2015/2115 19005KT 9999 NSW BKN060
TEMPO 2015/2018 SCT040TCU



MetMap, La meteo Aeronautica in un colpo d'occhio ! - Copyright ORBIFLY Dicembre 2007 - Disclaimer

ORBIFLY MET'MAP TEAM :

Programmazione e sviluppo : Alexandra Zaïnal
Concezione e sviluppo : Baudouin d'Aumeries
Co-Programmazione e sviluppo : Marc-Olivier Méhu
Supporto tecnico e logistico : Manuel Goepfert
Aiuto per la traduzione : Arnaldo La Scala

Contatto : metmap@orbifly.com




FONTI E CREDITI :

   NOAA